首页
METAR-TAF:

METAR-TAF

机场 :

布什爾機場

布什尔, 伊朗

纬度: 28-59N, 经度: 050-50E, 海拔: 19米

当前天气观测

该预报发布于4小时和11分钟前的21:00 UTC
风速4节,风向南转南东
温度 18°C
湿度 77%
气压 1013 hPa
能见度10公里或以上
散云层高于3000英尺, 积雨云.
散云层高于4000英尺
雷暴

METAR: OIBB 072100Z 15004KT 9999 TS SCT030CB SCT040 18/14 Q1013 A2992

时间: 04:41 (01:11 UTC)


TAF: 丢失

超过4000个机场的气象观测和天气预报(METAR&TAF报告)。

可查询的气象台以黄色和红色小点在地图上表示。

将鼠标移到小点上方,可查看气象台名称。

然后点击查看天气观测和预报。

如需切换地图:点击带黑十字的绿色按钮放大地图;点击带横线的绿色按钮缩小地图;或者点击绿色箭头查看邻近地区的地图。


METAR-TAF: